CheckWX is a tool to help pilots better visualize weather data.  It is not intended as a substitute for an official pre-flight weather briefing.

14:13:48 UTC

LTAR METAR
Sivas Airport
Sivas, Turkey
Current

11 mins ago

LTAR 151403Z 35013KT 2500 -RA BCFG BKN001 BKN030 OVC080 09/09 Q1022
Observed
Sep-15 @ 14:03 UTC
Wind
  • 350° at 13 KTS
Visibility
2,500 meters
Flight Rules
LIFR
Conditions
Light Rain, Patches of Fog
Cloud Levels
  • Broken at 100' AGL
  • Broken at 3,000' AGL
  • Overcast at 8,000' AGL
Temperature
C / 48°F
Dewpoint
C / 48°F
Humidity
100%
Altimeter
30.18" Hg
Pressure
1021.92 hPa
Previous

41 mins ago

LTAR 151333Z 36010KT 0800 R01/0800D R19/0800D -RA BCFG BKN001 BKN030 OVC080 10/09 Q1022
Observed
Sep-15 @ 13:33 UTC
Wind
  • 360° at 10 KTS
Visibility
800 meters
Flight Rules
LIFR
Conditions
Patches of Fog, Light Rain
Cloud Levels
  • Broken at 100' AGL
  • Broken at 3,000' AGL
  • Overcast at 8,000' AGL
Temperature
10°C / 50°F
Dewpoint
C / 48°F
Humidity
94%
Altimeter
30.18" Hg
Pressure
1021.92 hPa
Previous

41 mins ago

LTAR 151333Z 36010KT 0800 R01/0800D R19/0800D -RA BCFG BKN001 BKN030 OVC080 10/09 Q1022 RMK RWY19 33009KT
Observed
Sep-15 @ 13:33 UTC
Wind
  • 360° at 10 KTS
Visibility
800 meters
Flight Rules
LIFR
Conditions
Patches of Fog, Light Rain
Cloud Levels
  • Broken at 100' AGL
  • Broken at 3,000' AGL
  • Overcast at 8,000' AGL
Temperature
10°C / 50°F
Dewpoint
C / 48°F
Humidity
94%
Altimeter
30.18" Hg
Pressure
1021.92 hPa